Nearby METAR Reports

 

KHOB - Hobbs, New Mexico, USA
Distance from station: S 40mi, 65km
Updated: Fri, 23-Aug-2019 11:50am MDT
Partly cloudy
Partly cloudy
 Wind from S
Wind: S 6 mph , 9 km/h
Temperature: 88°F , 31°C
Dew Point: 57°F , 14°C
Humidity: 35%
Barometer: 30.02 inHg , 1016.6 hPa
Clouds: Partly cloudy
Visibility: 10 miles , 16 km
Cloud details: Few Clouds 6500 ft
Partly cloudy 12000 ft
2019/08/23 17:50 KHOB 231750Z 19005KT 10SM FEW065 SCT120 31/14 A3002
KGNC - Seminole, Texas, USA
Distance from station: SE 55mi, 89km
Updated: Fri, 23-Aug-2019 11:55am MDT
Mostly cloudy
Mostly cloudy
 Wind from SSW
Wind: SSW 7 mph , 11 km/h
Temperature: 86°F , 30°C
Heat Index: 86°F , 30°C
Dew Point: 61°F , 16°C
Humidity: 43%
Barometer: 30.05 inHg , 1017.6 hPa
Clouds: Mostly cloudy
Visibility: 10 miles , 16 km
Cloud details: Mostly cloudy 12000 ft
2019/08/23 17:55 KGNC 231755Z AUTO 20006KT 10SM BKN120 30/16 A3005 RMK AO2 T03020156 10302 20195
 
KROW - Roswell, New Mexico, USA
Distance from station: W 67mi, 108km
Updated: Fri, 23-Aug-2019 11:51am MDT
Clear
Clear
 Wind from S
Wind: S 9 mph , 15 km/h
Temperature: 88°F , 31°C
Dew Point: 59°F , 15°C
Humidity: 38%
Barometer: 30.00 inHg , 1015.9 hPa
Clouds: Clear
Visibility: 10 miles , 16 km
2019/08/23 17:51 KROW 231751Z 17008KT 10SM CLR 31/15 A3000 RMK AO2 SLP085 T03060150 10306 20211 58009
KATS - Artesia, New Mexico, USA
Distance from station: WSW 71mi, 114km
Updated: Fri, 23-Aug-2019 12:15pm MDT
Clear
Clear
 Wind from varies
Wind: varies 6 mph , 9 km/h
Temperature: 88°F , 31°C
Heat Index: 88°F , 31°C
Dew Point: 61°F , 16°C
Humidity: 40%
Barometer: 29.99 inHg , 1015.6 hPa
Clouds: Clear
Visibility: 10 miles , 16 km
2019/08/23 18:15 KATS 231815Z AUTO VRB05KT 10SM CLR 31/16 A2999 RMK AO2
 
KCVS - Cannon AFB,Clovis, New Mexico, USA
Distance from station: 0 78mi, 125km
Updated: Fri, 23-Aug-2019 11:58am MDT
Clear
Clear
 Wind from SW
Wind: SW 8 mph , 13 km/h
Temperature: 81°F , 27°C
Heat Index: 82°F , 28°C
Dew Point: 63°F , 17°C
Humidity: 54%
Barometer: 30.07 inHg , 1018.3 hPa
Clouds: Clear
Visibility: 10 miles , 16 km
2019/08/23 17:58 KCVS 231758Z AUTO 22007KT 10SM CLR 27/17 A3007 RMK AO2 SLP125 T02690168 10269 20163 58002 $
KE11 - Andrews, Texas, USA
Distance from station: SE 78mi, 126km
Updated: Fri, 23-Aug-2019 11:55am MDT
Clear
Clear
 Wind from calm
Wind: Calm
Temperature: 90°F , 32°C
Dew Point: 61°F , 16°C
Humidity: 38%
Barometer: 30.00 inHg , 1015.9 hPa
Clouds: Clear
Visibility: 10 miles , 16 km
2019/08/23 17:55 KE11 231755Z AUTO 00000KT 10SM CLR 32/16 A3000 RMK AO2 T03160162 10326 20193
 
KCNM - Carlsbad, New Mexico, USA
Distance from station: SW 82mi, 132km
Updated: Fri, 23-Aug-2019 11:53am MDT
Clear
Clear
 Wind from SE
Wind: SE 8 mph , 13 km/h
Temperature: 88°F , 31°C
Dew Point: 59°F , 15°C
Humidity: 38%
Barometer: 29.96 inHg , 1014.6 hPa
Clouds: Clear
Visibility: 10 miles , 16 km
2019/08/23 17:53 KCNM 231753Z AUTO 14007KT 10SM CLR 31/15 A2996 RMK AO2 SLP085 T03110150 10317 20200 58010
KCVN - Clovis Muni, New Mexico, USA
Distance from station: N 83mi, 133km
Updated: Fri, 23-Aug-2019 11:56am MDT
Few Clouds
Few Clouds
 Wind from SSW
Wind: SSW 9 mph , 15 km/h
Temperature: 82°F , 28°C
Heat Index: 84°F , 29°C
Dew Point: 64°F , 18°C
Humidity: 55%
Barometer: 30.07 inHg , 1018.3 hPa
Clouds: Few Clouds
Visibility: 10 miles , 16 km
Cloud details: Few Clouds 200 ft
2019/08/23 17:56 KCVN 231756Z AUTO 20008KT 10SM FEW002 28/18 A3007 RMK AO2 SLP140 T02830178 10283 20156 58001
 
KLBB - Lubbock, Texas, USA
Distance from station: ENE 92mi, 149km
Updated: Fri, 23-Aug-2019 11:53am MDT
Few Clouds
Few Clouds
 Wind from varies
Wind: varies 3 mph , 6 km/h
Temperature: 88°F , 31°C
Heat Index: 89°F , 32°C
Dew Point: 63°F , 17°C
Humidity: 43%
Barometer: 30.02 inHg , 1016.6 hPa
Clouds: Few Clouds
Visibility: 10 miles , 16 km
Cloud details: Few Clouds 5000 ft
Few Clouds 25000 ft
2019/08/23 17:53 KLBB 231753Z VRB03KT 10SM FEW050 FEW250 31/17 A3002 RMK AO2 SLP107 T03060172 10306 20206 58000
KINK - Wink, Texas, USA
Distance from station: S 101mi, 163km
Updated: Fri, 23-Aug-2019 11:53am MDT
Clear
Clear
 Wind from WSW
Wind: WSW 3 mph , 6 km/h
Temperature: 88°F , 31°C
Heat Index: 89°F , 32°C
Dew Point: 63°F , 17°C
Humidity: 43%
Barometer: 29.95 inHg , 1014.2 hPa
Clouds: Clear
Visibility: 10 miles , 16 km
2019/08/23 17:53 KINK 231753Z AUTO 24003KT 10SM CLR 31/17 A2995 RMK AO2 SLP095 T03110172 10311 20217 58007
 
KMAF - Midland, Texas, USA
Distance from station: SE 111mi, 179km
Updated: Fri, 23-Aug-2019 11:53am MDT
Clear
Clear
 Wind from varies
Wind: varies 7 mph , 11 km/h
Temperature: 88°F , 31°C
Heat Index: 91°F , 33°C
Dew Point: 66°F , 19°C
Humidity: 49%
Barometer: 29.98 inHg , 1015.2 hPa
Clouds: Clear
Visibility: 10 miles , 16 km
2019/08/23 17:53 KMAF 231753Z VRB06KT 10SM CLR 31/19 A2998 RMK AO2 SLP103 T03110189 10322 20217 58004 $
KSRR - Sierra B/Ruidoso, New Mexico, USA
Distance from station: W 127mi, 204km
Updated: Fri, 23-Aug-2019 12:15pm MDT
Clear
Clear
 Wind from N
Wind: N 13 mph , 20 km/h, Gust: 16 mph , 26 km/h
Temperature: 79°F , 26°C
Dew Point: 43°F , 6°C
Humidity: 28%
Barometer: 30.24 inHg , 1024 hPa
Clouds: Clear
Visibility: 10 miles , 16 km
2019/08/23 18:15 KSRR 231815Z AUTO 36011G14KT 10SM CLR 26/06 A3024 RMK AO2
 
KGDP - Guadalupe Pass, Texas, USA
Distance from station: SW 130mi, 209km
Updated: Fri, 23-Aug-2019 11:51am MDT
Clear
Clear
 Wind from WSW
Wind: WSW 20 mph , 31 km/h, Gust: 26 mph , 43 km/h
Temperature: 84°F , 29°C
Dew Point: 54°F , 12°C
Humidity: 35%
Barometer: 30.14 inHg , 1020.7 hPa
Clouds: Clear
Visibility: 10 miles , 16 km
2019/08/23 17:51 KGDP 231751Z AUTO 25017G23KT 10SM CLR 29/12 A3014 RMK AO2 SLP118 T02890122 10289 20156 50000